To NAV CANADA Home Page Login to a new session Search on AWWS site Feedback and Comments Disclaimer Vers la page française équivalente Tips FAQ What's new on the site To the Forecasts and Observations / NOTAM section To "File a Flight Plan" website Publications and other links Update of the User's profile FIC Telephone Numbers My Weather Data Folder Route Weather Data Regional Weather Data Local Weather Data To the Forecasts and Observations / NOTAM section
Request Generated 08/22/2017 at 03:23:29 UTC . Weather information available at that time is displayed.

METAR/TAF

LA GRANDE-4/QC    (show WxCam)

METAR CYAH 220300Z AUTO 25003KT 9SM FEW050 13/10 A2974 RMK SLP079
DENSITY ALT 1100FT=
METAR CYAH 220200Z AUTO /////KT 9SM CLR 14/10 A2973 RMK WND MISG
TS/LTNG TEMPO UNAVBL SLP077 DENSITY ALT 1300FT=
METAR CYAH 220100Z AUTO 21007KT 9SM FEW039 SCT100 14/10 A2973 RMK
SLP077 DENSITY ALT 1300FT=

*** REMARK        : Forecast period has ended; this was the last TAF issued
*** REMARQUE : La période de prévision est échue; ceci était le dernier TAF qui a été émis
TAF CYAH 211739Z 2118/2121 27012G22KT P6SM BKN030 TEMPO 2118/2121
P6SM -SHRA
RMK FCST BASED ON AUTO OBS. NXT FCST WILL BE ISSUED AT 221045Z=
Your time UTC time
Weather data provided by Environment Canada and NAV CANADA